Time;durP1;ratioP1;P1;durP2;ratioP2;P2;SDS_P1;SDS_P2;PMS_P1;PMS_P2;Temp;Humidity;BMP_temperature;BMP_pressure;BME280_temperature;BME280_humidity;BME280_pressure;Samples;Min_cycle;Max_cycle;Signal;HPM_P1;HPM_P2
2021/08/26 00:06:08;;;;;;;19.40;11.83;;;16.20;99.90;;;;;;5091620;28;20196;-67
2021/08/26 00:08:33;;;;;;;14.47;12.97;;;16.10;99.90;;;;;;5091245;28;20296;-66
2021/08/26 00:11:00;;;;;;;13.83;12.13;;;16.10;99.90;;;;;;5091314;28;20244;-67
2021/08/26 00:13:26;;;;;;;13.97;12.00;;;16.00;99.90;;;;;;5091141;28;20169;-66
2021/08/26 00:15:54;;;;;;;15.23;12.57;;;16.00;99.90;;;;;;5091663;28;20577;-66
2021/08/26 00:18:19;;;;;;;15.43;13.77;;;15.90;99.90;;;;;;5089849;28;20210;-66
2021/08/26 00:20:50;;;;;;;14.27;12.83;;;15.80;99.90;;;;;;5091287;28;20637;-66
2021/08/26 00:23:15;;;;;;;14.97;13.43;;;15.80;99.90;;;;;;5091127;28;20215;-66
2021/08/26 00:25:41;;;;;;;14.37;12.97;;;15.80;99.90;;;;;;5091424;28;20181;-67
2021/08/26 00:28:07;;;;;;;17.17;13.90;;;15.70;99.90;;;;;;5091036;28;20543;-66
2021/08/26 00:30:32;;;;;;;15.00;13.03;;;15.80;99.90;;;;;;5090835;28;20182;-66
2021/08/26 00:32:58;;;;;;;14.17;12.50;;;15.90;99.90;;;;;;5091470;28;20166;-66
2021/08/26 00:35:23;;;;;;;13.13;11.83;;;15.90;99.90;;;;;;5091034;28;20181;-66
2021/08/26 00:37:49;;;;;;;13.07;11.23;;;15.90;99.90;;;;;;5091508;28;20657;-66
2021/08/26 00:40:15;;;;;;;12.07;10.97;;;15.80;99.90;;;;;;5090690;28;20193;-66
2021/08/26 00:42:41;;;;;;;11.43;10.27;;;15.80;99.90;;;;;;5091458;28;20169;-66
2021/08/26 00:45:08;;;;;;;13.03;10.87;;;15.80;99.90;;;;;;5091080;28;20185;-66
2021/08/26 00:47:34;;;;;;;11.80;10.70;;;15.70;99.90;;;;;;5089646;28;20177;-66
2021/08/26 00:50:00;;;;;;;12.67;10.77;;;15.70;99.90;;;;;;5090644;28;20189;-66
2021/08/26 00:52:26;;;;;;;11.53;10.33;;;15.70;99.90;;;;;;5091191;28;20534;-66
2021/08/26 00:54:52;;;;;;;12.20;11.00;;;15.80;99.90;;;;;;5091011;28;20260;-66
2021/08/26 00:57:20;;;;;;;11.83;10.73;;;15.80;99.90;;;;;;5090975;28;20180;-66
2021/08/26 00:59:46;;;;;;;17.57;11.53;;;15.70;99.90;;;;;;5090780;28;20730;-66
2021/08/26 01:02:16;;;;;;;13.93;12.57;;;15.80;99.90;;;;;;5091045;28;20275;-66
2021/08/26 01:04:57;;;;;;;12.13;11.10;;;15.80;99.90;;;;;;5093363;28;20181;-66
2021/08/26 01:07:36;;;;;;;15.43;12.27;;;15.80;99.90;;;;;;5094745;28;20597;-66
2021/08/26 01:10:05;;;;;;;15.20;12.70;;;15.70;99.90;;;;;;5092949;28;20207;-66
2021/08/26 01:12:31;;;;;;;13.13;11.80;;;15.70;99.90;;;;;;5094636;28;20174;-66
2021/08/26 01:14:57;;;;;;;13.07;11.83;;;15.70;99.90;;;;;;5094521;28;20546;-66
2021/08/26 01:17:31;;;;;;;13.20;11.90;;;15.70;99.90;;;;;;5094295;28;20502;-66
2021/08/26 01:19:57;;;;;;;11.50;10.40;;;15.70;99.90;;;;;;5094047;28;20593;-66
2021/08/26 01:22:25;;;;;;;11.80;10.80;;;15.80;99.90;;;;;;5094447;28;20173;-66
2021/08/26 01:25:13;;;;;;;12.37;11.17;;;15.80;99.90;;;;;;5094279;28;20260;-66
2021/08/26 01:27:49;;;;;;;10.67;9.60;;;15.80;99.90;;;;;;5094238;28;20165;-66
2021/08/26 01:30:18;;;;;;;10.53;9.63;;;15.70;99.90;;;;;;5093575;28;20670;-66
2021/08/26 01:32:47;;;;;;;10.50;9.57;;;15.70;99.90;;;;;;5094011;28;20185;-66
2021/08/26 01:35:13;;;;;;;10.50;9.60;;;15.70;99.90;;;;;;5093993;28;20256;-66
2021/08/26 01:37:39;;;;;;;10.77;9.77;;;15.70;99.90;;;;;;5094177;28;20598;-66
2021/08/26 01:40:05;;;;;;;11.17;10.13;;;15.80;99.90;;;;;;5093444;28;20217;-66
2021/08/26 01:42:31;;;;;;;11.07;10.07;;;15.80;99.90;;;;;;5093726;28;20174;-67
2021/08/26 01:44:57;;;;;;;11.47;10.27;;;15.80;99.90;;;;;;5093941;28;20189;-66
2021/08/26 01:47:23;;;;;;;12.33;11.20;;;15.70;99.90;;;;;;5092932;28;20162;-66
2021/08/26 01:49:50;;;;;;;10.50;9.70;;;15.60;99.90;;;;;;5093351;28;20209;-66
2021/08/26 01:52:18;;;;;;;13.00;11.60;;;15.60;99.90;;;;;;5093883;28;20161;-66
2021/08/26 01:54:50;;;;;;;11.53;10.53;;;15.50;99.90;;;;;;5093655;28;20577;-66
2021/08/26 01:57:17;;;;;;;11.80;10.70;;;15.40;99.90;;;;;;5093554;28;20184;-66
2021/08/26 01:59:42;;;;;;;12.47;11.30;;;15.40;99.90;;;;;;5093223;28;20327;-66
2021/08/26 02:02:08;;;;;;;12.40;11.23;;;15.30;99.90;;;;;;5093701;28;20201;-66
2021/08/26 02:04:34;;;;;;;11.73;10.63;;;15.30;99.90;;;;;;5093562;28;20286;-66
2021/08/26 02:06:59;;;;;;;10.87;9.90;;;15.30;99.90;;;;;;5092993;28;20174;-66
2021/08/26 02:09:25;;;;;;;11.27;10.27;;;15.40;99.90;;;;;;5092248;28;20285;-66
2021/08/26 02:11:50;;;;;;;9.63;8.93;;;15.40;99.90;;;;;;5093442;28;20165;-67
2021/08/26 02:14:16;;;;;;;10.27;9.27;;;15.40;99.90;;;;;;5092507;28;20545;-66
2021/08/26 02:16:41;;;;;;;9.70;8.90;;;15.50;99.90;;;;;;5093425;28;20169;-66
2021/08/26 02:19:07;;;;;;;10.27;9.47;;;15.50;99.90;;;;;;5093894;28;20280;-70
2021/08/26 02:21:32;;;;;;;8.47;7.83;;;15.50;99.90;;;;;;5094188;28;20181;-69
2021/08/26 02:23:58;;;;;;;9.50;8.73;;;15.40;99.90;;;;;;5093205;28;20181;-71
2021/08/26 02:26:24;;;;;;;9.83;9.13;;;15.30;99.90;;;;;;5094663;28;20177;-71
2021/08/26 02:28:50;;;;;;;9.73;8.93;;;15.30;99.90;;;;;;5093851;28;20209;-71
2021/08/26 02:31:16;;;;;;;8.07;7.47;;;15.20;99.90;;;;;;5094373;28;20170;-69
2021/08/26 02:33:42;;;;;;;9.53;8.73;;;15.20;99.90;;;;;;5094003;28;20169;-70
2021/08/26 02:36:07;;;;;;;9.03;8.33;;;15.20;99.90;;;;;;5093604;28;20178;-69
2021/08/26 02:38:33;;;;;;;9.77;8.97;;;15.20;99.90;;;;;;5093229;28;20201;-69
2021/08/26 02:40:58;;;;;;;7.90;7.30;;;15.30;99.90;;;;;;5093593;28;20211;-72
2021/08/26 02:43:24;;;;;;;8.37;7.57;;;15.20;99.90;;;;;;5093779;28;20327;-68
2021/08/26 02:45:50;;;;;;;8.50;7.50;;;15.10;99.90;;;;;;5094034;28;20185;-70
2021/08/26 02:48:16;;;;;;;8.33;7.47;;;15.00;99.90;;;;;;5093573;28;20285;-72
2021/08/26 02:50:41;;;;;;;8.13;7.33;;;14.90;99.90;;;;;;5091953;28;20191;-69
2021/08/26 02:53:07;;;;;;;8.77;7.73;;;14.80;99.90;;;;;;5093939;28;20177;-70
2021/08/26 02:55:33;;;;;;;9.77;7.57;;;14.80;99.90;;;;;;5093047;28;20185;-71
2021/08/26 02:57:58;;;;;;;9.83;7.70;;;14.80;99.90;;;;;;5093731;28;20180;-72
2021/08/26 03:00:24;;;;;;;8.73;7.87;;;14.70;99.90;;;;;;5093357;28;20261;-72
2021/08/26 03:02:50;;;;;;;8.33;7.53;;;14.80;99.90;;;;;;5093278;28;20178;-70
2021/08/26 03:05:15;;;;;;;7.63;7.03;;;14.70;99.90;;;;;;5093311;28;20583;-72
2021/08/26 03:07:41;;;;;;;9.87;7.97;;;14.60;99.90;;;;;;5092977;28;20178;-70
2021/08/26 03:10:07;;;;;;;7.47;6.87;;;14.60;99.90;;;;;;5093230;28;20218;-70
2021/08/26 03:12:32;;;;;;;7.27;6.70;;;14.60;99.90;;;;;;5093089;28;20718;-69
2021/08/26 03:14:58;;;;;;;9.83;7.83;;;14.60;99.90;;;;;;5092110;28;20261;-69
2021/08/26 03:17:24;;;;;;;9.33;7.67;;;14.60;99.90;;;;;;5092473;28;20177;-72
2021/08/26 03:19:49;;;;;;;8.80;8.00;;;14.60;99.90;;;;;;5092973;28;20213;-70
2021/08/26 03:22:15;;;;;;;8.33;7.60;;;14.70;99.90;;;;;;5092660;28;20230;-68
2021/08/26 03:24:41;;;;;;;8.50;7.57;;;14.60;99.90;;;;;;5092759;28;20200;-73
2021/08/26 03:27:06;;;;;;;12.63;8.03;;;14.60;99.90;;;;;;5092693;28;20313;-71
2021/08/26 03:29:32;;;;;;;9.57;7.60;;;14.70;99.90;;;;;;5092324;28;20213;-71
2021/08/26 03:31:57;;;;;;;9.07;7.53;;;14.70;99.90;;;;;;5092945;28;20169;-71
2021/08/26 03:34:23;;;;;;;9.30;8.27;;;14.60;99.90;;;;;;5093475;28;20244;-69
2021/08/26 03:36:49;;;;;;;8.80;8.00;;;14.50;99.90;;;;;;5093153;28;20188;-69
2021/08/26 03:39:14;;;;;;;8.73;7.90;;;14.50;99.90;;;;;;5072775;28;20752;-70
2021/08/26 03:41:40;;;;;;;9.70;8.70;;;14.50;99.90;;;;;;5072291;28;20178;-70
2021/08/26 03:44:05;;;;;;;9.73;8.00;;;14.50;99.90;;;;;;5092589;28;20177;-69
2021/08/26 03:46:31;;;;;;;11.33;8.03;;;14.50;99.90;;;;;;5093303;28;20287;-69
2021/08/26 03:48:57;;;;;;;10.43;8.20;;;14.50;99.90;;;;;;5092192;28;20213;-71
2021/08/26 03:51:22;;;;;;;11.20;8.50;;;14.50;99.90;;;;;;5091267;28;20173;-69
2021/08/26 03:53:48;;;;;;;8.80;7.93;;;14.50;99.90;;;;;;5092885;28;20173;-72
2021/08/26 03:56:14;;;;;;;11.17;8.53;;;14.50;99.90;;;;;;5093006;28;20189;-66
2021/08/26 03:58:39;;;;;;;13.27;8.37;;;14.50;99.90;;;;;;5091365;28;20244;-66
2021/08/26 04:01:06;;;;;;;9.27;8.37;;;14.50;99.90;;;;;;5091368;28;20260;-66
2021/08/26 04:03:32;;;;;;;10.13;9.10;;;14.50;99.90;;;;;;5091168;28;20177;-66
2021/08/26 04:05:58;;;;;;;10.43;8.10;;;14.50;99.90;;;;;;5091701;28;20173;-66
2021/08/26 04:08:24;;;;;;;14.00;9.43;;;14.50;99.90;;;;;;5091164;28;20550;-66
2021/08/26 04:10:49;;;;;;;9.30;8.30;;;14.50;99.90;;;;;;5091298;28;20184;-66
2021/08/26 04:13:15;;;;;;;11.70;8.70;;;14.60;99.90;;;;;;5091169;28;20177;-66
2021/08/26 04:15:41;;;;;;;11.27;8.77;;;14.60;99.90;;;;;;5091339;28;20804;-66
2021/08/26 04:18:06;;;;;;;9.60;8.63;;;14.70;99.90;;;;;;5091167;28;20201;-66
2021/08/26 04:20:32;;;;;;;10.30;9.43;;;14.70;99.90;;;;;;5091000;28;20178;-66
2021/08/26 04:22:58;;;;;;;11.93;9.47;;;14.70;99.90;;;;;;5091210;28;20196;-66
2021/08/26 04:25:23;;;;;;;11.40;8.80;;;14.80;99.90;;;;;;5091296;28;20188;-66
2021/08/26 04:27:49;;;;;;;10.10;9.07;;;14.80;99.90;;;;;;5091403;28;20207;-66
2021/08/26 04:30:15;;;;;;;11.20;10.03;;;14.80;99.90;;;;;;5091101;28;20209;-66
2021/08/26 04:32:40;;;;;;;15.33;9.57;;;14.80;99.90;;;;;;5089850;28;20181;-65
2021/08/26 04:35:07;;;;;;;11.10;10.00;;;14.80;99.90;;;;;;5091377;28;20173;-66
2021/08/26 04:37:32;;;;;;;11.20;10.03;;;14.70;99.90;;;;;;5091358;28;20510;-65
2021/08/26 04:39:58;;;;;;;12.77;10.30;;;14.80;99.90;;;;;;5094901;28;20197;-66
2021/08/26 04:42:24;;;;;;;13.87;10.27;;;14.80;99.90;;;;;;5094929;28;20197;-67
2021/08/26 04:44:49;;;;;;;14.37;10.37;;;14.90;99.90;;;;;;5095243;28;20227;-66
2021/08/26 04:47:15;;;;;;;16.70;10.63;;;14.90;99.90;;;;;;5094834;28;20622;-66
2021/08/26 04:49:40;;;;;;;13.80;10.13;;;14.90;99.90;;;;;;5093643;28;20217;-66
2021/08/26 04:52:06;;;;;;;11.50;10.30;;;14.90;99.90;;;;;;5094905;28;20178;-66
2021/08/26 04:54:32;;;;;;;12.17;10.67;;;14.90;99.90;;;;;;5094978;28;20184;-66
2021/08/26 04:56:57;;;;;;;18.53;11.30;;;14.90;99.90;;;;;;5094912;28;20188;-66
2021/08/26 04:59:23;;;;;;;16.53;10.30;;;14.90;99.90;;;;;;5094200;28;20208;-66
2021/08/26 05:01:48;;;;;;;11.23;10.10;;;14.90;99.90;;;;;;5094609;28;20192;-66
2021/08/26 05:04:20;;;;;;;11.00;9.77;;;14.80;99.90;;;;;;5094610;28;20260;-66
2021/08/26 05:06:46;;;;;;;14.20;10.10;;;14.70;99.90;;;;;;5094272;28;20635;-66
2021/08/26 05:09:11;;;;;;;10.17;9.17;;;14.80;99.90;;;;;;5094381;28;20213;-66
2021/08/26 05:11:37;;;;;;;16.23;10.40;;;14.80;99.90;;;;;;5094321;28;20264;-66
2021/08/26 05:14:02;;;;;;;13.63;9.40;;;14.80;99.90;;;;;;5094445;28;20185;-66
2021/08/26 05:16:28;;;;;;;15.37;10.00;;;14.80;99.90;;;;;;5094586;28;20211;-66
2021/08/26 05:18:54;;;;;;;18.03;10.60;;;14.70;99.90;;;;;;5094258;28;20280;-66
2021/08/26 05:21:19;;;;;;;12.40;9.87;;;14.80;99.90;;;;;;5094173;28;20180;-66
2021/08/26 05:23:45;;;;;;;12.83;9.97;;;14.80;99.90;;;;;;5094050;28;20238;-66
2021/08/26 05:26:14;;;;;;;10.80;9.80;;;14.80;99.90;;;;;;5094464;28;20623;-66
2021/08/26 05:28:41;;;;;;;16.77;9.77;;;14.80;99.90;;;;;;5093739;28;20213;-66
2021/08/26 05:31:07;;;;;;;14.27;10.83;;;14.80;99.90;;;;;;5093871;28;20181;-66
2021/08/26 05:33:32;;;;;;;12.33;9.60;;;14.90;99.90;;;;;;5093755;28;20182;-66
2021/08/26 05:35:58;;;;;;;13.97;8.70;;;14.90;99.90;;;;;;5094244;28;20166;-66
2021/08/26 05:38:23;;;;;;;12.60;8.23;;;14.90;99.90;;;;;;5093918;28;20254;-66
2021/08/26 05:40:49;;;;;;;13.70;8.60;;;15.00;99.90;;;;;;5093814;28;20173;-66
2021/08/26 05:43:14;;;;;;;17.07;8.70;;;15.00;99.90;;;;;;5092632;28;20174;-66
2021/08/26 05:45:40;;;;;;;12.60;9.10;;;15.00;99.90;;;;;;5093874;28;20268;-66
2021/08/26 05:48:06;;;;;;;16.07;9.00;;;15.00;99.90;;;;;;5092550;28;20552;-66
2021/08/26 05:50:32;;;;;;;14.33;8.20;;;15.10;99.90;;;;;;5088931;28;20643;-66
2021/08/26 05:52:57;;;;;;;13.77;8.73;;;15.10;99.90;;;;;;5093908;28;20170;-66
2021/08/26 05:55:23;;;;;;;14.67;9.50;;;15.10;99.90;;;;;;5093291;28;20220;-66
2021/08/26 05:57:49;;;;;;;12.07;8.10;;;15.10;99.90;;;;;;5093625;28;20526;-66
2021/08/26 06:00:15;;;;;;;13.13;9.33;;;15.10;99.90;;;;;;5093092;28;20201;-66
2021/08/26 06:02:41;;;;;;;11.60;9.27;;;15.10;99.90;;;;;;5093651;28;20597;-66
2021/08/26 06:05:07;;;;;;;10.83;7.57;;;15.10;99.90;;;;;;5092140;28;20184;-66
2021/08/26 06:07:33;;;;;;;14.63;8.33;;;15.10;99.90;;;;;;5093354;28;20508;-66
2021/08/26 06:09:59;;;;;;;12.97;7.50;;;15.30;99.90;;;;;;5093031;28;20209;-66
2021/08/26 06:12:25;;;;;;;13.20;8.60;;;15.40;99.90;;;;;;5093544;28;20627;-66
2021/08/26 06:14:50;;;;;;;10.83;8.30;;;15.40;99.90;;;;;;5093201;28;20182;-66
2021/08/26 06:17:16;;;;;;;14.27;8.30;;;15.40;99.90;;;;;;5093336;28;20177;-66
2021/08/26 06:19:41;;;;;;;19.30;8.97;;;15.50;99.90;;;;;;5092602;28;20299;-66
2021/08/26 06:22:07;;;;;;;12.10;7.77;;;15.40;99.90;;;;;;5092368;28;20181;-66
2021/08/26 06:24:33;;;;;;;13.63;8.03;;;15.50;99.90;;;;;;5092955;28;20216;-66
2021/08/26 06:27:01;;;;;;;11.20;8.47;;;15.50;99.90;;;;;;5093419;28;20201;-66
2021/08/26 06:29:27;;;;;;;9.67;7.80;;;15.60;99.90;;;;;;5091074;28;20303;-66
2021/08/26 06:31:52;;;;;;;8.03;7.17;;;15.60;99.90;;;;;;5093094;28;20252;-66
2021/08/26 06:34:18;;;;;;;11.63;7.43;;;15.60;99.90;;;;;;5091453;28;20560;-66
2021/08/26 06:36:44;;;;;;;8.70;7.63;;;15.70;99.90;;;;;;5093317;28;20586;-66
2021/08/26 06:39:09;;;;;;;8.87;7.77;;;15.70;99.90;;;;;;5092744;28;20280;-66
2021/08/26 06:41:35;;;;;;;9.43;7.43;;;15.70;99.90;;;;;;5092495;28;20585;-66
2021/08/26 06:44:00;;;;;;;10.00;7.40;;;15.70;99.90;;;;;;5092748;28;20220;-66
2021/08/26 06:46:26;;;;;;;11.47;7.30;;;15.70;99.90;;;;;;5092262;28;20182;-66
2021/08/26 06:48:54;;;;;;;8.97;7.67;;;15.70;99.90;;;;;;5091182;28;20212;-66
2021/08/26 06:51:21;;;;;;;8.37;7.57;;;15.80;99.90;;;;;;5072173;28;20604;-66
2021/08/26 06:53:47;;;;;;;15.07;8.17;;;15.80;99.90;;;;;;5079558;28;20176;-67
2021/08/26 06:56:12;;;;;;;11.37;8.17;;;15.80;99.90;;;;;;5092491;28;20185;-66
2021/08/26 06:58:38;;;;;;;9.13;7.53;;;15.80;99.90;;;;;;5092221;28;20194;-66
2021/08/26 07:01:04;;;;;;;9.80;7.87;;;15.90;99.90;;;;;;5092111;28;20220;-66
2021/08/26 07:03:30;;;;;;;7.60;6.87;;;15.90;99.90;;;;;;5092426;28;20519;-67
2021/08/26 07:05:56;;;;;;;9.00;7.67;;;15.80;99.90;;;;;;5090975;28;20188;-66
2021/08/26 07:08:22;;;;;;;15.97;7.83;;;15.90;99.90;;;;;;5092342;28;20213;-66
2021/08/26 07:10:47;;;;;;;11.97;8.60;;;15.80;99.90;;;;;;5091899;28;20679;-66
2021/08/26 07:13:13;;;;;;;13.53;7.90;;;15.90;99.90;;;;;;5092436;28;20177;-67
2021/08/26 07:15:39;;;;;;;10.30;7.80;;;16.00;99.90;;;;;;5091735;28;20189;-66
2021/08/26 07:18:06;;;;;;;12.27;8.47;;;16.00;99.90;;;;;;5091996;28;20205;-66
2021/08/26 07:20:32;;;;;;;9.40;7.67;;;16.10;99.90;;;;;;5091640;28;20178;-66
2021/08/26 07:22:58;;;;;;;9.03;7.13;;;16.10;99.90;;;;;;5090869;28;20185;-66
2021/08/26 07:25:24;;;;;;;10.40;7.83;;;16.10;99.90;;;;;;5091843;28;20569;-66
2021/08/26 07:27:49;;;;;;;13.90;8.40;;;16.20;99.90;;;;;;5091819;28;20623;-66
2021/08/26 07:30:15;;;;;;;9.07;8.17;;;16.30;99.90;;;;;;5090976;28;20288;-66
2021/08/26 07:32:41;;;;;;;10.00;8.23;;;16.40;99.90;;;;;;5089868;28;20623;-68
2021/08/26 07:35:07;;;;;;;10.50;8.27;;;16.40;99.90;;;;;;5092113;28;20176;-67
2021/08/26 07:37:33;;;;;;;7.77;7.07;;;16.40;99.90;;;;;;5090904;28;20733;-66
2021/08/26 07:39:58;;;;;;;8.67;7.50;;;16.40;99.90;;;;;;5091015;28;20279;-66
2021/08/26 07:42:24;;;;;;;8.87;7.97;;;16.40;99.90;;;;;;5081197;28;20181;-66
2021/08/26 07:44:49;;;;;;;8.33;7.17;;;16.50;99.90;;;;;;5081938;28;20189;-66
2021/08/26 07:47:15;;;;;;;8.80;8.00;;;16.60;99.90;;;;;;5090520;28;20181;-66
2021/08/26 07:49:40;;;;;;;11.87;8.03;;;16.80;99.90;;;;;;5088853;28;20809;-66
2021/08/26 07:52:06;;;;;;;8.87;7.97;;;16.80;99.90;;;;;;5090445;28;20181;-66
2021/08/26 07:54:32;;;;;;;12.17;8.77;;;16.90;99.90;;;;;;5091077;28;20174;-66
2021/08/26 07:56:58;;;;;;;14.10;8.73;;;16.80;99.90;;;;;;5091266;28;20170;-66
2021/08/26 07:59:24;;;;;;;11.93;8.90;;;16.80;99.90;;;;;;5089895;28;20568;-66
2021/08/26 08:01:49;;;;;;;9.00;7.30;;;17.10;99.90;;;;;;5091571;28;20181;-65
2021/08/26 08:04:15;;;;;;;10.83;8.20;;;17.30;99.90;;;;;;5091307;28;20200;-66
2021/08/26 08:06:41;;;;;;;8.43;6.60;;;17.50;99.90;;;;;;5091661;28;20619;-66
2021/08/26 08:09:07;;;;;;;10.03;6.70;;;17.70;99.90;;;;;;5091329;28;20212;-65
2021/08/26 08:11:32;;;;;;;10.90;6.80;;;17.80;99.90;;;;;;5090304;28;20173;-66
2021/08/26 08:14:00;;;;;;;10.60;6.97;;;17.60;99.90;;;;;;5094326;28;20613;-66
2021/08/26 08:16:25;;;;;;;7.83;7.07;;;17.60;99.90;;;;;;5095536;28;20265;-65
2021/08/26 08:18:51;;;;;;;8.53;6.80;;;17.80;99.90;;;;;;5095712;28;20588;-65
2021/08/26 08:21:16;;;;;;;7.63;6.90;;;17.70;99.90;;;;;;5095032;28;20275;-66
2021/08/26 08:23:43;;;;;;;8.37;6.40;;;17.50;99.90;;;;;;5095365;28;20504;-66
2021/08/26 08:26:11;;;;;;;7.30;6.57;;;17.30;99.90;;;;;;5095292;28;20182;-65
2021/08/26 08:28:37;;;;;;;6.93;6.20;;;17.30;99.90;;;;;;5095101;28;20213;-66
2021/08/26 08:31:04;;;;;;;8.73;7.10;;;17.30;99.90;;;;;;5094420;28;20192;-65
2021/08/26 08:33:30;;;;;;;7.07;6.23;;;17.20;99.90;;;;;;5094474;28;20209;-66
2021/08/26 08:35:56;;;;;;;11.03;6.70;;;17.20;99.90;;;;;;5095128;28;20196;-66
2021/08/26 08:38:22;;;;;;;11.37;7.40;;;17.40;99.90;;;;;;5093777;28;20201;-65
2021/08/26 08:40:47;;;;;;;8.90;6.83;;;17.50;99.90;;;;;;5093212;28;20192;-66
2021/08/26 08:43:14;;;;;;;10.33;7.00;;;17.50;99.90;;;;;;5093909;28;20177;-66
2021/08/26 08:45:46;;;;;;;7.83;7.17;;;17.80;99.90;;;;;;5093467;28;20652;-65
2021/08/26 08:48:13;;;;;;;8.07;7.30;;;17.90;99.90;;;;;;5094263;28;20200;-66
2021/08/26 08:50:41;;;;;;;7.57;6.87;;;17.90;99.90;;;;;;5094544;28;20181;-66
2021/08/26 08:53:14;;;;;;;8.93;6.60;;;18.10;99.90;;;;;;5095134;28;20303;-66
2021/08/26 08:55:43;;;;;;;8.10;6.27;;;18.20;99.90;;;;;;5094575;28;20189;-66
2021/08/26 08:58:09;;;;;;;11.07;7.23;;;18.10;99.90;;;;;;5092834;28;20177;-66
2021/08/26 09:00:35;;;;;;;10.47;7.03;;;18.00;99.90;;;;;;5093657;28;20186;-66
2021/08/26 09:03:01;;;;;;;7.17;6.47;;;18.00;99.90;;;;;;5093573;28;20547;-66
2021/08/26 09:05:57;;;;;;;8.70;6.93;;;18.10;99.90;;;;;;5094582;28;20212;-66
2021/08/26 09:08:24;;;;;;;7.00;6.37;;;18.20;99.90;;;;;;5094706;28;20205;-66
2021/08/26 09:10:55;;;;;;;7.70;6.63;;;18.30;99.90;;;;;;5094066;28;20911;-66
2021/08/26 09:13:30;;;;;;;6.80;6.20;;;18.30;99.90;;;;;;5094071;28;20178;-66
2021/08/26 09:15:56;;;;;;;6.77;6.07;;;18.40;99.90;;;;;;5094152;28;20185;-66
2021/08/26 09:18:22;;;;;;;6.50;5.90;;;18.60;99.90;;;;;;5093136;28;20284;-66
2021/08/26 09:20:57;;;;;;;8.33;6.20;;;18.60;99.90;;;;;;5093770;28;20192;-66
2021/08/26 09:23:25;;;;;;;7.37;6.70;;;18.50;99.90;;;;;;5094131;28;20652;-65
2021/08/26 09:25:54;;;;;;;6.80;6.17;;;17.90;99.90;;;;;;5092521;28;20185;-66
2021/08/26 09:28:31;;;;;;;9.67;7.00;;;17.60;99.90;;;;;;5093927;28;20212;-66
2021/08/26 09:31:15;;;;;;;7.90;7.10;;;17.70;99.90;;;;;;5093945;28;20191;-65
2021/08/26 09:33:57;;;;;;;6.60;6.10;;;18.00;99.90;;;;;;5093842;28;20177;-65
2021/08/26 09:36:35;;;;;;;6.20;5.60;;;18.60;99.90;;;;;;5094196;28;20173;-66
2021/08/26 09:39:15;;;;;;;6.53;5.97;;;19.10;99.90;;;;;;5094006;28;20204;-66
2021/08/26 09:41:53;;;;;;;6.70;5.83;;;19.50;99.90;;;;;;5093846;28;20177;-66
2021/08/26 09:44:36;;;;;;;5.27;4.73;;;19.30;99.90;;;;;;5093391;28;20181;-66
2021/08/26 09:47:04;;;;;;;6.93;5.10;;;18.90;99.90;;;;;;5093941;28;20548;-66
2021/08/26 09:49:34;;;;;;;5.87;5.40;;;18.40;99.90;;;;;;5090731;28;20670;-65
2021/08/26 09:52:14;;;;;;;7.13;5.53;;;18.30;99.90;;;;;;5093668;28;20543;-66
2021/08/26 09:54:49;;;;;;;5.50;5.00;;;18.60;99.90;;;;;;5093955;28;20602;-66
2021/08/26 09:57:24;;;;;;;5.77;5.27;;;18.70;99.90;;;;;;5093912;28;20169;-66
2021/08/26 09:59:54;;;;;;;5.83;5.33;;;18.60;99.90;;;;;;5092931;28;20296;-66
2021/08/26 10:02:20;;;;;;;6.77;5.73;;;18.90;99.90;;;;;;5092692;28;20185;-66
2021/08/26 10:04:48;;;;;;;6.30;5.70;;;19.00;99.90;;;;;;5092945;28;20607;-66
2021/08/26 10:07:15;;;;;;;5.77;4.83;;;19.10;99.90;;;;;;5092468;28;20189;-68
2021/08/26 10:09:42;;;;;;;6.07;5.60;;;18.90;99.90;;;;;;5093004;28;20300;-66
2021/08/26 10:12:12;;;;;;;5.47;5.10;;;19.00;99.90;;;;;;5093612;28;20237;-66
2021/08/26 10:14:42;;;;;;;5.80;5.40;;;19.40;99.90;;;;;;5093361;28;20174;-66
2021/08/26 10:17:09;;;;;;;5.87;5.37;;;19.60;99.90;;;;;;5093417;28;20180;-66
2021/08/26 10:19:35;;;;;;;5.60;5.10;;;19.70;99.90;;;;;;5092911;28;20244;-66
2021/08/26 10:22:01;;;;;;;5.90;5.43;;;19.80;99.90;;;;;;5092374;28;20177;-66
2021/08/26 10:24:27;;;;;;;5.77;5.37;;;19.80;99.90;;;;;;5092977;28;20719;-66
2021/08/26 10:27:00;;;;;;;10.40;7.13;;;19.80;99.90;;;;;;5093250;28;20208;-66
2021/08/26 10:29:26;;;;;;;6.70;6.10;;;19.70;99.90;;;;;;5092964;28;20236;-66
2021/08/26 10:31:58;;;;;;;6.77;6.17;;;19.90;99.90;;;;;;5092465;28;20169;-65
2021/08/26 10:34:27;;;;;;;6.43;5.90;;;19.70;99.90;;;;;;5072694;28;20201;-65
2021/08/26 10:36:55;;;;;;;6.70;6.20;;;19.40;99.90;;;;;;5071404;28;20169;-66
2021/08/26 10:39:31;;;;;;;5.93;5.33;;;19.40;99.90;;;;;;5092292;28;20208;-65
2021/08/26 10:42:18;;;;;;;6.23;5.70;;;19.50;99.90;;;;;;5091278;28;20177;-66
2021/08/26 10:45:19;;;;;;;11.60;5.80;;;19.30;99.90;;;;;;5073936;28;20515;-66
2021/08/26 10:48:05;;;;;;;8.00;7.40;;;19.40;99.90;;;;;;5081888;28;20191;-66
2021/08/26 10:50:33;;;;;;;9.40;6.90;;;19.90;99.90;;;;;;5088151;28;20247;-65
2021/08/26 10:53:11;;;;;;;10.17;6.10;;;19.90;99.90;;;;;;5092226;28;20185;-66
2021/08/26 10:55:41;;;;;;;6.50;6.00;;;19.60;99.90;;;;;;5091299;28;20181;-65
2021/08/26 10:58:25;;;;;;;7.93;6.47;;;19.40;99.90;;;;;;5090178;28;20178;-66
2021/08/26 11:01:00;;;;;;;6.57;5.90;;;19.30;99.90;;;;;;5091012;28;20173;-66
2021/08/26 11:03:35;;;;;;;7.13;5.70;;;19.30;99.90;;;;;;5091147;28;20173;-66
2021/08/26 11:06:28;;;;;;;6.80;5.70;;;19.20;99.90;;;;;;5092460;28;20173;-66
2021/08/26 11:08:58;;;;;;;6.30;5.37;;;19.60;99.90;;;;;;5091566;28;20262;-67
2021/08/26 11:11:24;;;;;;;7.23;6.73;;;19.90;99.90;;;;;;5092023;28;20252;-67
2021/08/26 11:13:51;;;;;;;8.70;6.23;;;20.10;99.90;;;;;;5092250;28;20250;-65
2021/08/26 11:16:25;;;;;;;8.07;5.63;;;20.40;99.90;;;;;;5092388;28;20222;-66
2021/08/26 11:18:54;;;;;;;6.30;5.80;;;20.60;99.90;;;;;;5091507;28;20250;-66
2021/08/26 11:21:41;;;;;;;6.60;6.00;;;20.90;99.90;;;;;;5091627;28;20178;-66
2021/08/26 11:24:30;;;;;;;7.10;6.50;;;20.90;99.90;;;;;;5091833;28;20265;-66
2021/08/26 11:27:00;;;;;;;6.43;5.93;;;20.40;99.90;;;;;;5090393;28;20173;-67
2021/08/26 11:29:25;;;;;;;9.07;5.37;;;20.10;99.90;;;;;;5091250;28;20200;-66
2021/08/26 11:31:54;;;;;;;6.93;5.83;;;19.90;99.90;;;;;;5091870;28;20248;-66
2021/08/26 11:34:28;;;;;;;6.50;6.00;;;19.80;99.90;;;;;;5091759;28;20169;-66
2021/08/26 11:36:57;;;;;;;6.30;5.80;;;19.70;99.90;;;;;;5090876;28;20181;-66
2021/08/26 11:39:23;;;;;;;6.83;5.33;;;19.70;99.90;;;;;;5091500;28;20278;-66
2021/08/26 11:41:48;;;;;;;7.13;5.50;;;19.90;99.90;;;;;;5091769;28;20205;-66
2021/08/26 11:44:15;;;;;;;6.37;5.87;;;19.90;99.90;;;;;;5091694;28;20192;-67
2021/08/26 11:46:41;;;;;;;6.30;5.80;;;19.70;99.90;;;;;;5091521;28;20169;-66
2021/08/26 11:49:07;;;;;;;6.20;5.60;;;19.70;99.90;;;;;;5089649;28;20205;-66
2021/08/26 11:51:32;;;;;;;6.60;6.10;;;19.50;99.90;;;;;;5091527;28;20212;-66
2021/08/26 11:54:18;;;;;;;7.07;6.50;;;19.50;99.90;;;;;;5090059;28;20173;-67
2021/08/26 11:56:49;;;;;;;6.17;5.70;;;19.60;99.90;;;;;;5091828;28;20268;-66
2021/08/26 11:59:26;;;;;;;6.50;5.80;;;19.90;99.90;;;;;;5091271;28;20197;-66
2021/08/26 12:02:14;;;;;;;7.60;6.83;;;20.10;99.90;;;;;;5091487;28;20173;-67
2021/08/26 12:04:40;;;;;;;5.57;5.07;;;20.20;99.90;;;;;;5091397;28;20185;-67
2021/08/26 12:07:06;;;;;;;5.77;5.20;;;20.20;99.90;;;;;;5091684;28;20170;-66
2021/08/26 12:09:32;;;;;;;6.37;5.90;;;20.40;99.90;;;;;;5090966;28;20686;-66
2021/08/26 12:12:08;;;;;;;4.87;4.57;;;20.60;99.90;;;;;;5091327;28;20173;-67
2021/08/26 12:14:34;;;;;;;6.47;5.45;;;21.10;99.90;;;;;;5091223;28;20218;-67
2021/08/26 12:17:13;;;;;;;4.85;4.50;;;21.70;99.90;;;;;;5091600;28;20639;-66
2021/08/26 12:19:39;;;;;;;4.82;4.43;;;22.10;99.90;;;;;;5089688;28;20205;-66
2021/08/26 12:22:05;;;;;;;6.95;4.97;;;22.00;99.90;;;;;;5089840;28;20185;-67
2021/08/26 12:24:30;;;;;;;5.00;4.70;;;22.00;99.90;;;;;;5091262;28;20659;-66
2021/08/26 12:27:09;;;;;;;5.32;4.88;;;22.10;99.90;;;;;;5091413;28;20188;-66
2021/08/26 12:29:46;;;;;;;5.93;5.43;;;22.10;99.90;;;;;;5090177;28;20215;-67
2021/08/26 12:32:32;;;;;;;6.13;5.25;;;22.00;99.90;;;;;;5091352;28;20731;-66
2021/08/26 12:35:26;;;;;;;5.70;4.63;;;22.00;99.90;;;;;;5071347;28;20215;-67
2021/08/26 12:37:55;;;;;;;5.93;5.35;;;21.90;99.90;;;;;;5074565;28;20230;-66
2021/08/26 12:40:22;;;;;;;7.47;5.33;;;21.40;99.90;;;;;;5091009;28;20246;-66
2021/08/26 12:43:05;;;;;;;5.93;5.43;;;20.90;99.90;;;;;;5091097;28;20197;-66
2021/08/26 12:45:35;;;;;;;6.00;5.50;;;20.60;99.90;;;;;;5091222;28;20248;-65
2021/08/26 12:48:23;;;;;;;5.97;5.47;;;20.00;99.90;;;;;;5090669;28;20173;-66
2021/08/26 12:51:03;;;;;;;6.10;5.50;;;19.40;99.90;;;;;;5091006;28;20672;-66